Time;durP1;ratioP1;P1;durP2;ratioP2;P2;SDS_P1;SDS_P2;PMS_P1;PMS_P2;Temp;Humidity;BMP_temperature;BMP_pressure;BME280_temperature;BME280_humidity;BME280_pressure;Samples;Min_cycle;Max_cycle;Signal;HPM_P1;HPM_P2
2021/07/30 00:02:22;;;;;;;;;9.00;7.00;;;;;;;;5143229;27;45272;-75
2021/07/30 00:04:48;;;;;;;;;6.00;6.00;;;;;;;;5143007;27;46388;-75
2021/07/30 00:07:13;;;;;;;;;8.67;8.67;;;;;;;;5143087;27;45209;-75
2021/07/30 00:09:38;;;;;;;;;11.33;9.33;;;;;;;;5143242;27;45564;-75
2021/07/30 00:12:04;;;;;;;;;7.00;7.00;;;;;;;;5141657;27;46358;-75
2021/07/30 00:14:29;;;;;;;;;8.67;8.00;;;;;;;;5141494;27;48571;-75
2021/07/30 00:16:54;;;;;;;;;8.00;7.00;;;;;;;;5142901;27;45244;-75
2021/07/30 00:19:19;;;;;;;;;7.33;7.00;;;;;;;;5143113;27;45347;-75
2021/07/30 00:21:45;;;;;;;;;7.67;7.67;;;;;;;;5142823;27;45246;-76
2021/07/30 00:24:10;;;;;;;;;8.00;8.00;;;;;;;;5142767;27;45347;-75
2021/07/30 00:26:35;;;;;;;;;8.00;8.00;;;;;;;;5141266;27;45991;-75
2021/07/30 00:29:00;;;;;;;;;10.00;8.00;;;;;;;;5141736;27;45346;-75
2021/07/30 00:31:25;;;;;;;;;7.33;7.33;;;;;;;;5124221;27;45218;-75
2021/07/30 00:33:51;;;;;;;;;8.33;7.33;;;;;;;;5121887;27;46217;-75
2021/07/30 00:36:16;;;;;;;;;11.33;8.00;;;;;;;;5121764;27;45223;-75
2021/07/30 00:38:41;;;;;;;;;8.33;8.00;;;;;;;;5121990;27;45292;-75
2021/07/30 00:41:06;;;;;;;;;6.67;6.67;;;;;;;;5121874;27;45487;-76
2021/07/30 00:43:32;;;;;;;;;7.33;7.33;;;;;;;;5121468;27;45334;-75
2021/07/30 00:45:58;;;;;;;;;8.33;8.33;;;;;;;;5121866;27;45296;-75
2021/07/30 00:48:23;;;;;;;;;8.00;7.67;;;;;;;;5122026;27;45297;-76
2021/07/30 00:50:48;;;;;;;;;8.00;7.33;;;;;;;;5121565;27;45235;-75
2021/07/30 00:53:15;;;;;;;;;10.67;8.67;;;;;;;;5121280;27;46243;-75
2021/07/30 00:55:41;;;;;;;;;10.00;8.33;;;;;;;;5120164;27;46006;-75
2021/07/30 00:58:07;;;;;;;;;9.00;9.00;;;;;;;;5120218;27;45305;-75
2021/07/30 01:00:32;;;;;;;;;9.00;9.00;;;;;;;;5121511;27;45186;-75
2021/07/30 01:03:00;;;;;;;;;6.33;6.33;;;;;;;;5121370;27;46726;-75
2021/07/30 01:05:29;;;;;;;;;7.00;6.67;;;;;;;;5121609;27;45127;-75
2021/07/30 01:07:54;;;;;;;;;8.67;6.33;;;;;;;;5121327;27;45464;-75
2021/07/30 01:10:20;;;;;;;;;6.00;6.00;;;;;;;;5120581;27;45420;-75
2021/07/30 01:12:46;;;;;;;;;7.00;7.00;;;;;;;;5121072;27;45971;-75
2021/07/30 01:15:11;;;;;;;;;8.00;7.00;;;;;;;;5119887;27;45359;-75
2021/07/30 01:17:36;;;;;;;;;8.00;8.00;;;;;;;;5121501;27;45273;-75
2021/07/30 01:20:02;;;;;;;;;8.67;7.00;;;;;;;;5121253;27;45410;-76
2021/07/30 01:22:29;;;;;;;;;8.33;7.33;;;;;;;;5121184;27;46059;-75
2021/07/30 01:24:55;;;;;;;;;8.33;6.67;;;;;;;;5121248;27;45932;-75
2021/07/30 01:27:21;;;;;;;;;7.00;7.00;;;;;;;;5121101;27;45683;-75
2021/07/30 01:29:47;;;;;;;;;7.33;7.33;;;;;;;;5125184;27;45434;-75
2021/07/30 01:32:12;;;;;;;;;6.00;6.00;;;;;;;;5141757;27;46068;-75
2021/07/30 01:34:38;;;;;;;;;12.67;9.00;;;;;;;;5140320;27;45345;-75
2021/07/30 01:37:03;;;;;;;;;8.00;8.00;;;;;;;;5141655;27;45533;-75
2021/07/30 01:39:28;;;;;;;;;8.00;8.00;;;;;;;;5141720;27;45480;-75
2021/07/30 01:41:53;;;;;;;;;7.67;7.67;;;;;;;;5141486;27;45356;-76
2021/07/30 01:44:18;;;;;;;;;9.00;9.00;;;;;;;;5141663;27;45312;-76
2021/07/30 01:46:45;;;;;;;;;7.33;7.33;;;;;;;;5141861;27;45331;-75
2021/07/30 01:49:10;;;;;;;;;7.00;7.00;;;;;;;;5141687;27;45351;-75
2021/07/30 01:51:35;;;;;;;;;7.00;7.00;;;;;;;;5141409;27;45319;-75
2021/07/30 01:54:01;;;;;;;;;8.67;8.67;;;;;;;;5141490;27;45396;-75
2021/07/30 01:56:26;;;;;;;;;7.67;7.67;;;;;;;;5141510;27;45321;-76
2021/07/30 01:58:51;;;;;;;;;10.00;9.67;;;;;;;;5141547;27;45268;-75
2021/07/30 02:01:16;;;;;;;;;8.67;7.00;;;;;;;;5141361;27;45269;-75
2021/07/30 02:03:41;;;;;;;;;6.00;6.00;;;;;;;;5140030;27;46245;-75
2021/07/30 02:06:07;;;;;;;;;9.00;8.00;;;;;;;;5141518;27;45236;-75
2021/07/30 02:08:33;;;;;;;;;9.00;7.00;;;;;;;;5141418;27;45163;-75
2021/07/30 02:10:58;;;;;;;;;8.00;8.00;;;;;;;;5139885;27;47360;-76
2021/07/30 02:16:07;;;;;;;;;7.67;7.67;;;;;;;;5141342;27;45481;-75
2021/07/30 02:18:32;;;;;;;;;6.33;6.33;;;;;;;;5141188;27;45203;-76
2021/07/30 02:20:57;;;;;;;;;9.33;9.00;;;;;;;;5142888;27;46258;-76
2021/07/30 02:23:22;;;;;;;;;9.33;9.33;;;;;;;;5144719;27;45169;-75
2021/07/30 02:25:47;;;;;;;;;8.33;7.67;;;;;;;;5145062;27;45315;-76
2021/07/30 02:28:13;;;;;;;;;9.67;7.67;;;;;;;;5144571;27;45140;-75
2021/07/30 02:30:38;;;;;;;;;6.67;6.67;;;;;;;;5133019;27;45688;-75
2021/07/30 02:33:03;;;;;;;;;6.67;6.67;;;;;;;;5122592;27;45241;-75
2021/07/30 02:35:28;;;;;;;;;10.00;8.67;;;;;;;;5122609;27;45194;-76
2021/07/30 02:37:53;;;;;;;;;9.00;7.33;;;;;;;;5123415;27;45168;-76
2021/07/30 02:40:19;;;;;;;;;10.33;8.67;;;;;;;;5122361;27;47597;-75
2021/07/30 02:42:44;;;;;;;;;8.67;7.00;;;;;;;;5123464;27;45156;-75
2021/07/30 02:45:09;;;;;;;;;8.67;8.00;;;;;;;;5122360;27;45225;-75
2021/07/30 02:47:35;;;;;;;;;8.00;8.00;;;;;;;;5122399;27;46130;-75
2021/07/30 02:50:00;;;;;;;;;8.33;8.00;;;;;;;;5123670;27;45209;-76
2021/07/30 02:52:25;;;;;;;;;7.00;7.00;;;;;;;;5123324;27;45286;-75
2021/07/30 02:54:50;;;;;;;;;7.00;7.00;;;;;;;;5123790;27;45281;-76
2021/07/30 02:57:16;;;;;;;;;12.00;9.00;;;;;;;;5123261;27;45197;-76
2021/07/30 02:59:41;;;;;;;;;7.67;7.67;;;;;;;;5123468;27;46612;-76
2021/07/30 03:02:06;;;;;;;;;11.00;10.00;;;;;;;;5123525;27;45280;-76
2021/07/30 03:04:31;;;;;;;;;9.00;8.33;;;;;;;;5123521;27;45338;-76
2021/07/30 03:06:56;;;;;;;;;10.33;7.67;;;;;;;;5121947;27;46100;-75
2021/07/30 03:09:22;;;;;;;;;9.67;7.67;;;;;;;;5123231;27;46318;-75
2021/07/30 03:11:47;;;;;;;;;8.33;8.33;;;;;;;;5123177;27;45349;-76
2021/07/30 03:14:12;;;;;;;;;8.00;8.00;;;;;;;;5123571;27;45450;-76
2021/07/30 03:16:37;;;;;;;;;10.00;8.00;;;;;;;;5121498;27;47204;-75
2021/07/30 03:19:03;;;;;;;;;6.00;5.33;;;;;;;;5123162;27;45410;-75
2021/07/30 03:21:28;;;;;;;;;6.33;6.33;;;;;;;;5123009;27;45289;-75
2021/07/30 03:23:54;;;;;;;;;10.00;10.00;;;;;;;;5123352;27;45275;-75
2021/07/30 03:26:20;;;;;;;;;7.00;7.00;;;;;;;;5123183;27;45297;-75
2021/07/30 03:28:47;;;;;;;;;13.67;10.33;;;;;;;;5122553;27;45349;-75
2021/07/30 03:31:12;;;;;;;;;7.00;7.00;;;;;;;;5139341;27;45179;-75
2021/07/30 03:33:37;;;;;;;;;8.67;8.67;;;;;;;;5143019;27;45210;-75
2021/07/30 03:36:03;;;;;;;;;7.00;7.00;;;;;;;;5143637;27;45213;-75
2021/07/30 03:38:28;;;;;;;;;9.00;9.00;;;;;;;;5143646;27;46059;-75
2021/07/30 03:40:53;;;;;;;;;10.33;6.33;;;;;;;;5143615;27;45225;-75
2021/07/30 03:43:18;;;;;;;;;10.67;10.00;;;;;;;;5142253;27;45178;-75
2021/07/30 03:45:44;;;;;;;;;8.67;8.67;;;;;;;;5142037;27;47230;-76
2021/07/30 03:48:09;;;;;;;;;8.67;8.67;;;;;;;;5143415;27;45276;-76
2021/07/30 03:50:34;;;;;;;;;8.33;8.00;;;;;;;;5143524;27;45289;-77
2021/07/30 03:53:00;;;;;;;;;11.00;8.67;;;;;;;;5143215;27;45303;-76
2021/07/30 03:55:25;;;;;;;;;6.00;6.00;;;;;;;;5141985;27;45525;-75
2021/07/30 03:57:50;;;;;;;;;9.67;9.00;;;;;;;;5142956;27;46310;-75
2021/07/30 04:00:16;;;;;;;;;7.67;7.67;;;;;;;;5142138;27;45221;-75
2021/07/30 04:02:41;;;;;;;;;9.00;9.00;;;;;;;;5143360;27;45329;-75
2021/07/30 04:05:07;;;;;;;;;10.00;9.00;;;;;;;;5142037;27;45556;-75
2021/07/30 04:07:32;;;;;;;;;8.67;7.67;;;;;;;;5143166;27;45374;-75
2021/07/30 04:09:58;;;;;;;;;8.33;6.67;;;;;;;;5141800;27;46281;-75
2021/07/30 04:12:23;;;;;;;;;7.00;7.00;;;;;;;;5143370;27;45218;-75
2021/07/30 04:14:48;;;;;;;;;8.33;8.33;;;;;;;;5142888;27;45219;-75
2021/07/30 04:17:13;;;;;;;;;7.67;7.67;;;;;;;;5143033;27;46062;-75
2021/07/30 04:19:43;;;;;;;;;9.67;9.00;;;;;;;;5143055;27;45327;-76
2021/07/30 04:22:08;;;;;;;;;6.67;6.33;;;;;;;;5143064;27;45220;-75
2021/07/30 04:24:34;;;;;;;;;9.00;9.00;;;;;;;;5142717;27;45252;-75
2021/07/30 04:26:59;;;;;;;;;11.33;10.00;;;;;;;;5142615;27;45308;-75
2021/07/30 04:29:25;;;;;;;;;8.67;8.67;;;;;;;;5140519;27;46116;-74
2021/07/30 04:31:50;;;;;;;;;9.00;9.00;;;;;;;;5122265;27;45243;-74
2021/07/30 04:34:15;;;;;;;;;11.00;10.00;;;;;;;;5121838;27;45202;-75
2021/07/30 04:36:41;;;;;;;;;11.00;10.67;;;;;;;;5121634;27;46232;-75
2021/07/30 04:39:06;;;;;;;;;6.00;6.00;;;;;;;;5121930;27;45282;-76
2021/07/30 04:41:32;;;;;;;;;10.33;10.00;;;;;;;;5121780;27;45229;-75
2021/07/30 04:43:57;;;;;;;;;11.33;9.00;;;;;;;;5120536;27;45458;-76
2021/07/30 04:46:23;;;;;;;;;8.67;8.67;;;;;;;;5120207;27;48213;-75
2021/07/30 04:48:48;;;;;;;;;10.67;9.00;;;;;;;;5121721;27;45448;-75
2021/07/30 04:51:13;;;;;;;;;9.00;9.00;;;;;;;;5121858;27;45340;-75
2021/07/30 04:53:39;;;;;;;;;9.00;9.00;;;;;;;;5121379;27;45477;-75
2021/07/30 04:56:04;;;;;;;;;8.33;7.00;;;;;;;;5121601;27;46073;-75
2021/07/30 04:58:29;;;;;;;;;9.67;9.67;;;;;;;;5121410;27;45352;-75
2021/07/30 05:00:54;;;;;;;;;11.00;9.33;;;;;;;;5121780;27;45443;-76
2021/07/30 05:03:20;;;;;;;;;10.67;9.00;;;;;;;;5121446;27;45473;-75
2021/07/30 05:05:45;;;;;;;;;9.67;9.67;;;;;;;;5121392;27;46234;-76
2021/07/30 05:08:10;;;;;;;;;8.00;7.33;;;;;;;;5121411;27;45286;-75
2021/07/30 05:10:36;;;;;;;;;8.67;7.00;;;;;;;;5121572;27;45493;-76
2021/07/30 05:13:01;;;;;;;;;8.67;8.67;;;;;;;;5121172;27;45239;-76
2021/07/30 05:15:26;;;;;;;;;9.33;8.00;;;;;;;;5121082;27;45497;-75
2021/07/30 05:17:51;;;;;;;;;9.33;9.33;;;;;;;;5121464;27;45353;-76
2021/07/30 05:20:17;;;;;;;;;9.00;9.00;;;;;;;;5121528;27;45213;-75
2021/07/30 05:22:42;;;;;;;;;8.00;8.00;;;;;;;;5121082;27;45461;-76
2021/07/30 05:25:09;;;;;;;;;11.00;8.33;;;;;;;;5121034;27;46042;-76
2021/07/30 05:27:34;;;;;;;;;11.67;10.00;;;;;;;;5121147;27;45230;-75
2021/07/30 05:29:59;;;;;;;;;6.00;6.00;;;;;;;;5127372;27;45372;-76
2021/07/30 05:32:25;;;;;;;;;12.00;10.67;;;;;;;;5141889;27;45490;-75
2021/07/30 05:34:50;;;;;;;;;10.00;9.00;;;;;;;;5141823;27;45160;-75
2021/07/30 05:37:15;;;;;;;;;8.33;8.33;;;;;;;;5141444;27;45208;-76
2021/07/30 05:39:41;;;;;;;;;8.67;8.67;;;;;;;;5142094;27;45321;-75
2021/07/30 05:42:06;;;;;;;;;9.67;9.67;;;;;;;;5141599;27;45355;-75
2021/07/30 05:44:32;;;;;;;;;10.67;10.67;;;;;;;;5141500;27;45444;-76
2021/07/30 05:46:57;;;;;;;;;10.00;10.00;;;;;;;;5141698;27;45226;-75
2021/07/30 05:49:22;;;;;;;;;9.67;9.67;;;;;;;;5141760;27;45316;-75
2021/07/30 05:51:47;;;;;;;;;10.00;10.00;;;;;;;;5140207;27;47586;-75
2021/07/30 05:54:12;;;;;;;;;10.50;8.50;;;;;;;;5140023;27;46892;-75
2021/07/30 05:56:38;;;;;;;;;10.00;10.00;;;;;;;;5144202;27;45362;-76
2021/07/30 05:59:03;;;;;;;;;9.33;9.33;;;;;;;;5145525;27;45294;-75
2021/07/30 06:01:28;;;;;;;;;9.67;9.67;;;;;;;;5145197;27;45241;-74
2021/07/30 06:03:54;;;;;;;;;11.67;10.67;;;;;;;;5145150;27;46034;-74
2021/07/30 06:06:19;;;;;;;;;10.00;8.33;;;;;;;;5145110;27;45324;-74
2021/07/30 06:08:45;;;;;;;;;9.33;9.33;;;;;;;;5145408;27;45287;-75
2021/07/30 06:11:10;;;;;;;;;10.67;10.33;;;;;;;;5145094;27;45525;-73
2021/07/30 06:13:35;;;;;;;;;9.00;8.00;;;;;;;;5143304;27;48212;-75
2021/07/30 06:16:00;;;;;;;;;8.00;8.00;;;;;;;;5145062;27;45227;-74
2021/07/30 06:18:26;;;;;;;;;10.00;10.00;;;;;;;;5145278;27;45213;-74
2021/07/30 06:20:51;;;;;;;;;8.67;8.67;;;;;;;;5144875;27;45300;-74
2021/07/30 06:23:16;;;;;;;;;7.67;7.67;;;;;;;;5144671;27;45293;-74
2021/07/30 06:25:41;;;;;;;;;10.33;9.67;;;;;;;;5145225;27;45181;-75
2021/07/30 06:28:07;;;;;;;;;11.00;9.00;;;;;;;;5144708;27;45221;-74
2021/07/30 06:30:32;;;;;;;;;10.33;9.00;;;;;;;;5134018;27;45188;-75
2021/07/30 06:32:57;;;;;;;;;7.33;6.33;;;;;;;;5123809;27;45523;-74
2021/07/30 06:35:25;;;;;;;;;7.67;7.00;;;;;;;;5124069;27;45299;-75
2021/07/30 06:37:50;;;;;;;;;10.33;7.33;;;;;;;;5123632;27;45339;-75
2021/07/30 06:40:15;;;;;;;;;9.67;8.00;;;;;;;;5122415;27;46089;-75
2021/07/30 06:42:40;;;;;;;;;10.00;9.00;;;;;;;;5122286;27;47343;-75
2021/07/30 06:45:07;;;;;;;;;9.00;9.00;;;;;;;;5123715;27;45198;-74
2021/07/30 06:47:33;;;;;;;;;9.00;9.00;;;;;;;;5123861;27;45340;-75
2021/07/30 06:49:58;;;;;;;;;8.00;8.00;;;;;;;;5123776;27;45770;-75
2021/07/30 06:52:23;;;;;;;;;9.00;7.33;;;;;;;;5123838;27;45523;-75
2021/07/30 06:54:48;;;;;;;;;8.00;7.00;;;;;;;;5123968;27;45314;-75
2021/07/30 06:57:13;;;;;;;;;9.00;9.00;;;;;;;;5123643;27;45379;-75
2021/07/30 06:59:39;;;;;;;;;8.33;8.33;;;;;;;;5122184;27;46168;-75
2021/07/30 07:02:04;;;;;;;;;6.67;6.67;;;;;;;;5123427;27;45766;-75
2021/07/30 07:04:30;;;;;;;;;9.00;9.00;;;;;;;;5123494;27;45431;-74
2021/07/30 07:06:55;;;;;;;;;7.33;7.33;;;;;;;;5122537;27;45364;-75
2021/07/30 07:09:21;;;;;;;;;9.67;8.33;;;;;;;;5122610;27;46031;-75
2021/07/30 07:11:46;;;;;;;;;8.00;8.00;;;;;;;;5123220;27;46262;-75
2021/07/30 07:14:11;;;;;;;;;8.00;8.00;;;;;;;;5121951;27;45251;-75
2021/07/30 07:16:37;;;;;;;;;8.00;8.00;;;;;;;;5123269;27;45227;-74
2021/07/30 07:19:03;;;;;;;;;9.00;9.00;;;;;;;;5122613;27;47126;-75
2021/07/30 07:21:31;;;;;;;;;6.33;4.00;;;;;;;;5122922;27;46077;-75
2021/07/30 07:23:57;;;;;;;;;8.33;8.33;;;;;;;;5123737;27;45370;-74
2021/07/30 07:26:22;;;;;;;;;5.33;5.33;;;;;;;;5123901;27;45285;-74
2021/07/30 07:28:47;;;;;;;;;8.00;8.00;;;;;;;;5123044;27;45263;-75
2021/07/30 07:31:12;;;;;;;;;9.33;9.33;;;;;;;;5139336;27;45360;-75
2021/07/30 07:33:37;;;;;;;;;9.00;8.33;;;;;;;;5144294;27;45320;-74
2021/07/30 07:36:03;;;;;;;;;7.33;7.33;;;;;;;;5144374;27;45272;-74
2021/07/30 07:38:28;;;;;;;;;7.00;7.00;;;;;;;;5144538;27;45419;-75
2021/07/30 07:40:54;;;;;;;;;7.00;6.33;;;;;;;;5144615;27;45546;-75
2021/07/30 07:43:19;;;;;;;;;6.00;6.00;;;;;;;;5143421;27;45286;-74
2021/07/30 07:45:44;;;;;;;;;7.67;7.67;;;;;;;;5144040;27;45327;-74
2021/07/30 07:48:09;;;;;;;;;5.33;5.33;;;;;;;;5144515;27;45312;-74
2021/07/30 07:50:35;;;;;;;;;6.00;6.00;;;;;;;;5144492;27;46234;-75
2021/07/30 07:53:00;;;;;;;;;6.33;6.33;;;;;;;;5141924;27;45251;-75
2021/07/30 07:55:25;;;;;;;;;6.00;6.00;;;;;;;;5143780;27;45332;-76
2021/07/30 07:57:50;;;;;;;;;5.00;5.00;;;;;;;;5143766;27;45503;-75
2021/07/30 08:00:16;;;;;;;;;5.00;5.00;;;;;;;;5143851;27;45386;-74
2021/07/30 08:02:41;;;;;;;;;7.00;5.67;;;;;;;;5143432;27;45298;-76
2021/07/30 08:05:06;;;;;;;;;5.67;5.67;;;;;;;;5144666;27;45318;-75
2021/07/30 08:07:32;;;;;;;;;7.67;7.00;;;;;;;;5145550;27;45232;-75
2021/07/30 08:09:57;;;;;;;;;7.33;7.33;;;;;;;;5143614;27;45246;-75
2021/07/30 08:12:22;;;;;;;;;7.67;7.67;;;;;;;;5142936;27;45248;-74
2021/07/30 08:14:47;;;;;;;;;8.33;7.00;;;;;;;;5143202;27;45268;-75
2021/07/30 08:17:14;;;;;;;;;6.33;6.33;;;;;;;;5143302;27;45197;-75
2021/07/30 08:19:40;;;;;;;;;6.67;5.67;;;;;;;;5142357;27;47579;-75
2021/07/30 08:22:05;;;;;;;;;6.00;6.00;;;;;;;;5141595;27;46039;-75
2021/07/30 08:24:30;;;;;;;;;6.67;6.67;;;;;;;;5143087;27;45487;-74
2021/07/30 08:26:57;;;;;;;;;7.00;7.00;;;;;;;;5143087;27;46166;-75
2021/07/30 08:29:22;;;;;;;;;6.33;5.00;;;;;;;;5140699;27;47181;-75
2021/07/30 08:31:47;;;;;;;;;4.00;4.00;;;;;;;;5122172;27;45403;-75
2021/07/30 08:34:13;;;;;;;;;4.67;4.33;;;;;;;;5123558;27;45485;-74
2021/07/30 08:36:38;;;;;;;;;5.00;5.00;;;;;;;;5123812;27;45307;-76
2021/07/30 08:39:03;;;;;;;;;9.00;8.00;;;;;;;;5122714;27;46500;-75
2021/07/30 08:41:29;;;;;;;;;6.33;6.33;;;;;;;;5120822;27;45776;-74
2021/07/30 08:43:55;;;;;;;;;7.00;5.67;;;;;;;;5122957;27;45450;-74
2021/07/30 08:46:24;;;;;;;;;7.67;6.33;;;;;;;;5122361;27;45316;-75
2021/07/30 08:48:50;;;;;;;;;8.33;7.33;;;;;;;;5123841;27;45280;-76
2021/07/30 08:51:16;;;;;;;;;6.00;6.00;;;;;;;;5122206;27;45354;-75
2021/07/30 08:53:42;;;;;;;;;6.33;6.00;;;;;;;;5122212;27;45318;-74
2021/07/30 08:56:08;;;;;;;;;6.00;6.00;;;;;;;;5121846;27;45340;-75
2021/07/30 08:58:34;;;;;;;;;7.33;7.33;;;;;;;;5122090;27;45444;-75
2021/07/30 09:00:59;;;;;;;;;6.00;6.00;;;;;;;;5122678;27;45304;-75
2021/07/30 09:03:40;;;;;;;;;8.33;8.33;;;;;;;;5121529;27;45308;-76
2021/07/30 09:06:14;;;;;;;;;8.00;8.00;;;;;;;;5122270;27;45234;-76
2021/07/30 09:08:39;;;;;;;;;6.33;4.67;;;;;;;;5121746;27;45232;-75
2021/07/30 09:11:05;;;;;;;;;10.00;9.00;;;;;;;;5122956;27;45206;-75
2021/07/30 09:13:32;;;;;;;;;8.00;8.00;;;;;;;;5120806;27;45245;-73
2021/07/30 09:16:07;;;;;;;;;6.67;6.67;;;;;;;;5122433;27;45333;-74
2021/07/30 09:18:34;;;;;;;;;8.00;8.00;;;;;;;;5123886;27;45531;-75
2021/07/30 09:21:19;;;;;;;;;6.00;6.00;;;;;;;;5122317;27;45767;-74
2021/07/30 09:23:50;;;;;;;;;6.00;6.00;;;;;;;;5122624;27;45369;-76
2021/07/30 09:26:27;;;;;;;;;7.00;7.00;;;;;;;;5123046;27;45193;-76
2021/07/30 09:28:53;;;;;;;;;6.00;6.00;;;;;;;;5121653;27;46154;-74
2021/07/30 09:31:18;;;;;;;;;6.00;6.00;;;;;;;;5138900;27;45415;-75
2021/07/30 09:33:43;;;;;;;;;6.00;6.00;;;;;;;;5144062;27;45230;-74
2021/07/30 09:36:09;;;;;;;;;5.67;5.00;;;;;;;;5142089;27;45227;-75
2021/07/30 09:38:34;;;;;;;;;6.33;6.00;;;;;;;;5142488;27;45340;-75
2021/07/30 09:41:12;;;;;;;;;4.33;4.33;;;;;;;;5143005;27;45407;-76
2021/07/30 09:43:38;;;;;;;;;6.00;5.33;;;;;;;;5144983;27;45520;-74
2021/07/30 09:46:13;;;;;;;;;5.33;5.33;;;;;;;;5143733;27;45280;-74
2021/07/30 09:48:49;;;;;;;;;4.67;4.67;;;;;;;;5143463;27;45224;-76
2021/07/30 09:51:15;;;;;;;;;5.00;4.00;;;;;;;;5145598;27;45272;-74
2021/07/30 09:53:41;;;;;;;;;6.67;6.67;;;;;;;;5142755;27;45429;-74
2021/07/30 09:56:06;;;;;;;;;7.67;6.33;;;;;;;;5146052;27;45227;-75
2021/07/30 09:58:31;;;;;;;;;5.67;5.67;;;;;;;;5147394;27;46294;-75
2021/07/30 10:00:57;;;;;;;;;7.67;7.67;;;;;;;;5142439;27;45341;-74
2021/07/30 10:03:22;;;;;;;;;6.00;5.00;;;;;;;;5144383;27;45253;-75
2021/07/30 10:05:50;;;;;;;;;5.33;5.00;;;;;;;;5143913;27;45240;-76
2021/07/30 10:08:15;;;;;;;;;7.00;6.00;;;;;;;;5142697;27;46337;-75
2021/07/30 10:10:42;;;;;;;;;7.00;6.00;;;;;;;;5144025;27;45333;-75
2021/07/30 10:13:13;;;;;;;;;6.00;5.67;;;;;;;;5144355;27;45233;-75
2021/07/30 10:15:40;;;;;;;;;6.33;6.33;;;;;;;;5144668;27;45464;-74
2021/07/30 10:18:05;;;;;;;;;6.33;6.00;;;;;;;;5144747;27;45433;-74
2021/07/30 10:20:31;;;;;;;;;5.00;5.00;;;;;;;;5144788;27;45302;-75
2021/07/30 10:22:59;;;;;;;;;5.67;5.33;;;;;;;;5147520;27;45297;-74
2021/07/30 10:25:29;;;;;;;;;7.00;6.00;;;;;;;;5147469;27;45366;-74
2021/07/30 10:27:56;;;;;;;;;4.33;3.67;;;;;;;;5147349;27;47564;-74
2021/07/30 10:30:21;;;;;;;;;6.00;6.00;;;;;;;;5135219;27;45283;-74
2021/07/30 10:32:48;;;;;;;;;6.33;6.33;;;;;;;;5123200;27;45678;-75
2021/07/30 10:35:14;;;;;;;;;3.00;3.00;;;;;;;;5125026;27;45967;-74
2021/07/30 10:37:42;;;;;;;;;7.00;6.33;;;;;;;;5123836;27;45259;-75
2021/07/30 10:40:14;;;;;;;;;4.67;4.67;;;;;;;;5123115;27;45349;-75
2021/07/30 10:43:15;;;;;;;;;4.33;4.00;;;;;;;;5123834;27;45474;-74
2021/07/30 10:45:41;;;;;;;;;4.67;4.67;;;;;;;;5104935;27;45366;-74
2021/07/30 10:48:22;;;;;;;;;5.00;4.67;;;;;;;;5118914;27;48162;-75
2021/07/30 10:50:50;;;;;;;;;2.00;2.00;;;;;;;;5125040;27;45343;-74
2021/07/30 10:53:34;;;;;;;;;6.67;6.00;;;;;;;;5127254;27;45337;-74
2021/07/30 10:56:00;;;;;;;;;5.00;5.00;;;;;;;;5128316;27;45334;-75
2021/07/30 10:58:41;;;;;;;;;3.00;3.00;;;;;;;;5129310;27;45337;-75
2021/07/30 11:01:07;;;;;;;;;3.33;3.33;;;;;;;;5126213;27;45254;-74
2021/07/30 11:03:53;;;;;;;;;4.33;3.33;;;;;;;;5124682;27;45246;-75
2021/07/30 11:06:18;;;;;;;;;5.33;4.67;;;;;;;;5126931;27;45275;-75
2021/07/30 11:09:06;;;;;;;;;7.00;5.00;;;;;;;;5127002;27;45470;-75
2021/07/30 11:11:35;;;;;;;;;4.67;4.67;;;;;;;;5125991;27;45296;-74
2021/07/30 11:14:01;;;;;;;;;5.00;5.00;;;;;;;;5125709;27;45265;-75
2021/07/30 11:16:26;;;;;;;;;7.33;6.67;;;;;;;;5126723;27;45195;-74
2021/07/30 11:18:51;;;;;;;;;5.00;4.33;;;;;;;;5127006;27;46244;-74
2021/07/30 11:21:16;;;;;;;;;5.00;5.00;;;;;;;;5128032;27;45342;-76
2021/07/30 11:23:44;;;;;;;;;3.33;3.33;;;;;;;;5128560;27;45537;-75
2021/07/30 11:26:10;;;;;;;;;2.67;2.67;;;;;;;;5128636;27;45239;-77
2021/07/30 11:28:35;;;;;;;;;3.67;3.67;;;;;;;;5129951;27;45299;-75
2021/07/30 11:31:01;;;;;;;;;3.33;3.33;;;;;;;;5144504;27;45321;-76
2021/07/30 11:33:26;;;;;;;;;2.00;2.00;;;;;;;;5149703;27;45219;-74
2021/07/30 11:35:52;;;;;;;;;4.00;4.00;;;;;;;;5148803;27;45375;-75
2021/07/30 11:38:17;;;;;;;;;3.33;3.00;;;;;;;;5150875;27;45594;-75
2021/07/30 11:40:42;;;;;;;;;2.67;2.67;;;;;;;;5149528;27;45391;-74
2021/07/30 11:43:08;;;;;;;;;2.00;2.00;;;;;;;;5147524;27;45285;-77
2021/07/30 11:45:33;;;;;;;;;2.33;2.33;;;;;;;;5148795;27;45216;-75
2021/07/30 11:47:58;;;;;;;;;2.33;2.33;;;;;;;;5145391;27;47506;-77
2021/07/30 11:50:26;;;;;;;;;3.00;3.00;;;;;;;;5146587;27;45203;-75
2021/07/30 11:52:51;;;;;;;;;3.67;3.67;;;;;;;;5148058;27;45369;-75
2021/07/30 11:55:17;;;;;;;;;3.00;3.00;;;;;;;;5148322;27;45253;-74
2021/07/30 11:57:43;;;;;;;;;1.67;1.67;;;;;;;;5147328;27;45346;-74
2021/07/30 12:00:08;;;;;;;;;1.67;1.67;;;;;;;;5148950;27;45278;-75
2021/07/30 12:02:33;;;;;;;;;4.00;4.00;;;;;;;;5149669;27;45335;-74
2021/07/30 12:04:59;;;;;;;;;0.00;0.00;;;;;;;;5146347;27;45343;-75
2021/07/30 12:07:26;;;;;;;;;1.00;1.00;;;;;;;;5146444;27;45377;-76
2021/07/30 12:09:55;;;;;;;;;2.00;2.00;;;;;;;;5147557;27;45311;-74
2021/07/30 12:12:21;;;;;;;;;1.00;1.00;;;;;;;;5149432;27;45226;-75
2021/07/30 12:14:48;;;;;;;;;0.75;0.75;;;;;;;;5151456;27;45205;-76
2021/07/30 12:17:15;;;;;;;;;1.33;1.33;;;;;;;;5149346;27;48486;-75
2021/07/30 12:19:40;;;;;;;;;1.00;1.00;;;;;;;;5149015;27;45259;-74
2021/07/30 12:22:07;;;;;;;;;1.00;1.00;;;;;;;;5148692;27;44680;-75
2021/07/30 12:24:33;;;;;;;;;0.00;0.00;;;;;;;;5146868;27;45604;-75
2021/07/30 12:27:14;;;;;;;;;0.67;0.00;;;;;;;;5149499;27;46333;-75
2021/07/30 12:29:40;;;;;;;;;0.67;0.00;;;;;;;;5147543;27;45321;-75
2021/07/30 12:32:14;;;;;;;;;0.00;0.00;;;;;;;;5127254;27;45255;-75
2021/07/30 12:34:40;;;;;;;;;0.00;0.00;;;;;;;;5133645;27;45509;-74
2021/07/30 12:37:09;;;;;;;;;0.00;0.00;;;;;;;;5132741;27;46095;-76
2021/07/30 12:39:47;;;;;;;;;0.00;0.00;;;;;;;;5132479;27;45408;-74
2021/07/30 12:42:19;;;;;;;;;0.00;0.00;;;;;;;;5134216;27;44614;-74
2021/07/30 12:45:00;;;;;;;;;0.00;0.00;;;;;;;;5131682;27;45124;-74
2021/07/30 12:47:26;;;;;;;;;0.00;0.00;;;;;;;;5134888;27;48298;-75
2021/07/30 12:49:52;;;;;;;;;0.00;0.00;;;;;;;;5131394;27;45410;-74
2021/07/30 12:52:17;;;;;;;;;0.00;0.00;;;;;;;;5131067;27;45273;-75
2021/07/30 12:54:43;;;;;;;;;0.00;0.00;;;;;;;;5129751;27;45444;-74
2021/07/30 12:57:08;;;;;;;;;0.00;0.00;;;;;;;;5131635;27;45203;-74
2021/07/30 12:59:45;;;;;;;;;0.00;0.00;;;;;;;;5132490;27;45276;-74
2021/07/30 13:02:10;;;;;;;;;1.67;1.00;;;;;;;;5135156;27;45233;-74
2021/07/30 13:04:36;;;;;;;;;0.00;0.00;;;;;;;;5131013;27;45395;-75
2021/07/30 13:07:01;;;;;;;;;0.00;0.00;;;;;;;;5131389;27;45211;-75
2021/07/30 13:09:27;;;;;;;;;0.00;0.00;;;;;;;;5133010;27;44591;-76
2021/07/30 13:11:52;;;;;;;;;0.00;0.00;;;;;;;;5133251;27;45348;-75
2021/07/30 13:14:17;;;;;;;;;0.00;0.00;;;;;;;;5131836;27;46827;-75
2021/07/30 13:16:42;;;;;;;;;0.00;0.00;;;;;;;;5131669;27;45116;-76
2021/07/30 13:19:07;;;;;;;;;0.00;0.00;;;;;;;;5130830;27;45295;-74
2021/07/30 13:21:33;;;;;;;;;0.00;0.00;;;;;;;;5132305;27;45266;-74
2021/07/30 13:23:58;;;;;;;;;0.00;0.00;;;;;;;;5129714;27;45183;-74
2021/07/30 13:26:23;;;;;;;;;1.33;1.33;;;;;;;;5131635;27;45415;-76
2021/07/30 13:28:48;;;;;;;;;0.00;0.00;;;;;;;;5133977;27;45297;-74
2021/07/30 13:31:13;;;;;;;;;2.25;1.00;;;;;;;;5149337;27;45308;-75
2021/07/30 13:33:39;;;;;;;;;0.00;0.00;;;;;;;;5155900;27;45237;-75
2021/07/30 13:36:04;;;;;;;;;0.00;0.00;;;;;;;;5152114;27;46065;-76
2021/07/30 13:38:29;;;;;;;;;1.00;0.00;;;;;;;;5151238;27;45213;-75
2021/07/30 13:40:55;;;;;;;;;0.00;0.00;;;;;;;;5152716;27;45372;-76
2021/07/30 13:43:23;;;;;;;;;2.00;0.00;;;;;;;;5153860;27;44826;-75
2021/07/30 13:45:51;;;;;;;;;1.00;1.00;;;;;;;;5151123;27;45214;-75
2021/07/30 13:48:16;;;;;;;;;2.33;1.00;;;;;;;;5151771;27;45679;-75
2021/07/30 13:50:42;;;;;;;;;0.00;0.00;;;;;;;;5152331;27;45228;-75
2021/07/30 13:53:07;;;;;;;;;0.00;0.00;;;;;;;;5150072;27;45117;-75
2021/07/30 13:55:32;;;;;;;;;0.00;0.00;;;;;;;;5153632;27;46127;-76
2021/07/30 13:57:57;;;;;;;;;1.33;0.67;;;;;;;;5153802;27;45372;-74
2021/07/30 14:00:23;;;;;;;;;0.00;0.00;;;;;;;;5152294;27;45439;-75
2021/07/30 14:02:48;;;;;;;;;0.00;0.00;;;;;;;;5151478;27;46171;-75
2021/07/30 14:05:13;;;;;;;;;1.00;0.33;;;;;;;;5154628;27;46254;-75
2021/07/30 14:07:43;;;;;;;;;0.00;0.00;;;;;;;;5156341;27;45236;-75
2021/07/30 14:10:09;;;;;;;;;0.00;0.00;;;;;;;;5153856;27;45152;-75
2021/07/30 14:12:34;;;;;;;;;2.00;2.00;;;;;;;;5153749;27;45414;-75
2021/07/30 14:15:00;;;;;;;;;0.00;0.00;;;;;;;;5154174;27;45040;-76
2021/07/30 14:17:25;;;;;;;;;2.67;1.67;;;;;;;;5156953;27;44582;-74
2021/07/30 14:19:50;;;;;;;;;2.67;2.67;;;;;;;;5158805;27;44695;-78
2021/07/30 14:22:15;;;;;;;;;0.33;0.33;;;;;;;;5159066;27;45287;-76
2021/07/30 14:24:40;;;;;;;;;1.33;1.33;;;;;;;;5160753;27;45334;-77
2021/07/30 14:27:06;;;;;;;;;0.00;0.00;;;;;;;;5160609;27;45277;-74
2021/07/30 14:29:31;;;;;;;;;1.00;1.00;;;;;;;;5156686;27;45366;-76
2021/07/30 14:31:56;;;;;;;;;1.33;0.33;;;;;;;;5159625;27;46212;-76
2021/07/30 14:34:21;;;;;;;;;3.00;1.00;;;;;;;;5161428;27;45242;-75
2021/07/30 14:36:46;;;;;;;;;1.33;1.33;;;;;;;;5161384;27;45142;-75
2021/07/30 14:39:17;;;;;;;;;1.00;0.00;;;;;;;;5160674;27;44521;-76